sensor_id;sensor_type;location;lat;lon;timestamp;pressure;altitude;pressure_sealevel;temperature;humidity
40982;BME280;26708;50.304;19.028;2023-06-14T00:01:28;97992.50;;;11.37;61.56
40982;BME280;26708;50.304;19.028;2023-06-14T00:03:34;98097.72;;;11.70;61.94
40982;BME280;26708;50.304;19.028;2023-06-14T00:05:40;98289.94;;;12.97;62.22
40982;BME280;26708;50.304;19.028;2023-06-14T00:07:44;98208.34;;;12.55;61.95
40982;BME280;26708;50.304;19.028;2023-06-14T00:09:52;98280.25;;;12.99;62.10
40982;BME280;26708;50.304;19.028;2023-06-14T00:11:57;98285.41;;;13.04;62.00
40982;BME280;26708;50.304;19.028;2023-06-14T00:14:01;98247.22;;;12.85;61.92
40982;BME280;26708;50.304;19.028;2023-06-14T00:16:07;98246.28;;;12.89;61.83
40982;BME280;26708;50.304;19.028;2023-06-14T00:18:12;98108.63;;;12.00;61.56
40982;BME280;26708;50.304;19.028;2023-06-14T00:20:17;98171.91;;;12.37;61.72
40982;BME280;26708;50.304;19.028;2023-06-14T00:22:23;98277.47;;;13.11;61.77
40982;BME280;26708;50.304;19.028;2023-06-14T00:24:31;98227.94;;;12.87;61.48
40982;BME280;26708;50.304;19.028;2023-06-14T00:26:38;98263.44;;;13.12;60.79
40982;BME280;26708;50.304;19.028;2023-06-14T00:28:43;98004.28;;;11.66;60.56
40982;BME280;26708;50.304;19.028;2023-06-14T00:30:48;98126.69;;;12.20;60.33
40982;BME280;26708;50.304;19.028;2023-06-14T00:32:52;98271.16;;;13.21;60.47
40982;BME280;26708;50.304;19.028;2023-06-14T00:34:57;98303.56;;;13.22;60.28
40982;BME280;26708;50.304;19.028;2023-06-14T00:37:05;98247.00;;;12.97;60.27
40982;BME280;26708;50.304;19.028;2023-06-14T00:39:10;98264.22;;;13.17;60.19
40982;BME280;26708;50.304;19.028;2023-06-14T00:41:15;98258.97;;;13.16;60.29
40982;BME280;26708;50.304;19.028;2023-06-14T00:43:23;98200.38;;;12.59;60.05
40982;BME280;26708;50.304;19.028;2023-06-14T00:45:28;98210.47;;;12.85;60.14
40982;BME280;26708;50.304;19.028;2023-06-14T00:47:38;98215.72;;;12.85;60.26
40982;BME280;26708;50.304;19.028;2023-06-14T00:49:47;98124.59;;;12.38;60.11
40982;BME280;26708;50.304;19.028;2023-06-14T00:51:52;98272.06;;;13.19;60.48
40982;BME280;26708;50.304;19.028;2023-06-14T00:53:58;98268.59;;;13.17;60.57
40982;BME280;26708;50.304;19.028;2023-06-14T00:56:03;98032.88;;;11.81;60.41
40982;BME280;26708;50.304;19.028;2023-06-14T00:58:08;98266.94;;;13.13;60.62
40982;BME280;26708;50.304;19.028;2023-06-14T01:00:20;97994.81;;;11.56;60.53
40982;BME280;26708;50.304;19.028;2023-06-14T01:02:25;98252.16;;;13.04;60.79
40982;BME280;26708;50.304;19.028;2023-06-14T01:04:31;98130.81;;;12.34;60.86
40982;BME280;26708;50.304;19.028;2023-06-14T01:06:45;98250.41;;;13.03;60.93
40982;BME280;26708;50.304;19.028;2023-06-14T01:09:12;98245.19;;;13.00;60.99
40982;BME280;26708;50.304;19.028;2023-06-14T01:11:28;98261.72;;;13.08;61.04
40982;BME280;26708;50.304;19.028;2023-06-14T01:13:45;98021.69;;;11.70;60.93
40982;BME280;26708;50.304;19.028;2023-06-14T01:15:55;98187.16;;;12.65;60.94
40982;BME280;26708;50.304;19.028;2023-06-14T01:18:00;98135.41;;;12.20;60.93
40982;BME280;26708;50.304;19.028;2023-06-14T01:20:09;98250.34;;;13.06;60.75
40982;BME280;26708;50.304;19.028;2023-06-14T01:22:16;98247.75;;;13.08;60.79
40982;BME280;26708;50.304;19.028;2023-06-14T01:24:24;98218.28;;;12.88;60.65
40982;BME280;26708;50.304;19.028;2023-06-14T01:26:34;98258.19;;;13.11;60.73
40982;BME280;26708;50.304;19.028;2023-06-14T01:28:42;98097.84;;;12.20;60.64
40982;BME280;26708;50.304;19.028;2023-06-14T01:30:52;98184.59;;;12.62;60.80
40982;BME280;26708;50.304;19.028;2023-06-14T01:33:00;98134.34;;;12.32;60.85
40982;BME280;26708;50.304;19.028;2023-06-14T01:35:07;98213.91;;;12.87;60.78
40982;BME280;26708;50.304;19.028;2023-06-14T01:37:13;98058.78;;;12.02;60.65
40982;BME280;26708;50.304;19.028;2023-06-14T01:39:19;98262.63;;;13.07;60.66
40982;BME280;26708;50.304;19.028;2023-06-14T01:41:29;98259.16;;;13.07;60.77
40982;BME280;26708;50.304;19.028;2023-06-14T01:43:35;98243.44;;;13.02;60.68
40982;BME280;26708;50.304;19.028;2023-06-14T01:45:45;98071.91;;;11.99;60.69
40982;BME280;26708;50.304;19.028;2023-06-14T01:47:51;98247.75;;;13.08;60.79
40982;BME280;26708;50.304;19.028;2023-06-14T01:49:56;98254.72;;;13.10;60.82
40982;BME280;26708;50.304;19.028;2023-06-14T01:52:02;98090.28;;;11.99;61.00
40982;BME280;26708;50.304;19.028;2023-06-14T01:54:11;98064.00;;;12.02;60.86
40982;BME280;26708;50.304;19.028;2023-06-14T01:56:18;98203.56;;;12.79;60.86
40982;BME280;26708;50.304;19.028;2023-06-14T01:58:24;98242.41;;;13.12;60.98
40982;BME280;26708;50.304;19.028;2023-06-14T02:00:29;98157.47;;;12.60;61.17
40982;BME280;26708;50.304;19.028;2023-06-14T02:02:35;98096.88;;;12.24;61.04
40982;BME280;26708;50.304;19.028;2023-06-14T02:04:41;98249.38;;;13.15;61.13
40982;BME280;26708;50.304;19.028;2023-06-14T02:06:48;98048.47;;;11.90;61.04
40982;BME280;26708;50.304;19.028;2023-06-14T02:08:53;98203.41;;;12.88;60.97
40982;BME280;26708;50.304;19.028;2023-06-14T02:10:58;98187.56;;;12.91;61.19
40982;BME280;26708;50.304;19.028;2023-06-14T02:13:05;98224.81;;;13.16;61.11
40982;BME280;26708;50.304;19.028;2023-06-14T02:15:10;98226.47;;;13.20;60.90
40982;BME280;26708;50.304;19.028;2023-06-14T02:17:17;98238.53;;;13.31;60.80
40982;BME280;26708;50.304;19.028;2023-06-14T02:19:22;98088.53;;;12.51;60.46
40982;BME280;26708;50.304;19.028;2023-06-14T02:21:28;98174.34;;;12.96;60.61
40982;BME280;26708;50.304;19.028;2023-06-14T02:23:35;98047.91;;;12.24;60.78
40982;BME280;26708;50.304;19.028;2023-06-14T02:25:40;98244.50;;;13.39;60.73
40982;BME280;26708;50.304;19.028;2023-06-14T02:27:46;98182.06;;;13.08;60.80
40982;BME280;26708;50.304;19.028;2023-06-14T02:29:54;98197.63;;;13.17;60.74
40982;BME280;26708;50.304;19.028;2023-06-14T02:32:00;98229.72;;;13.35;60.84
40982;BME280;26708;50.304;19.028;2023-06-14T02:34:18;98117.00;;;12.72;60.79
40982;BME280;26708;50.304;19.028;2023-06-14T02:36:23;98248.84;;;13.42;61.12
40982;BME280;26708;50.304;19.028;2023-06-14T02:38:28;98247.94;;;13.43;61.26
40982;BME280;26708;50.304;19.028;2023-06-14T02:40:34;98246.13;;;13.48;61.14
40982;BME280;26708;50.304;19.028;2023-06-14T02:42:40;98248.66;;;13.51;61.02
40982;BME280;26708;50.304;19.028;2023-06-14T02:44:47;98242.53;;;13.52;61.17
40982;BME280;26708;50.304;19.028;2023-06-14T02:46:55;98109.09;;;12.75;61.31
40982;BME280;26708;50.304;19.028;2023-06-14T02:49:01;98172.38;;;13.10;61.28
40982;BME280;26708;50.304;19.028;2023-06-14T02:51:06;98200.78;;;13.35;61.17
40982;BME280;26708;50.304;19.028;2023-06-14T02:53:12;98169.72;;;13.13;61.22
40982;BME280;26708;50.304;19.028;2023-06-14T02:55:17;98083.22;;;12.54;61.40
40982;BME280;26708;50.304;19.028;2023-06-14T02:57:22;98117.66;;;12.84;61.41
40982;BME280;26708;50.304;19.028;2023-06-14T02:59:28;98208.47;;;13.46;61.47
40982;BME280;26708;50.304;19.028;2023-06-14T03:01:33;98247.44;;;13.70;61.46
40982;BME280;26708;50.304;19.028;2023-06-14T03:03:45;98249.16;;;13.71;61.35
40982;BME280;26708;50.304;19.028;2023-06-14T03:05:51;98247.34;;;13.73;61.34
40982;BME280;26708;50.304;19.028;2023-06-14T03:07:59;98066.50;;;12.59;61.49
40982;BME280;26708;50.304;19.028;2023-06-14T03:10:04;98067.22;;;12.66;61.50
40982;BME280;26708;50.304;19.028;2023-06-14T03:12:11;98244.69;;;13.76;61.63
40982;BME280;26708;50.304;19.028;2023-06-14T03:14:19;98243.78;;;13.77;61.85
40982;BME280;26708;50.304;19.028;2023-06-14T03:16:24;98202.19;;;13.53;62.00
40982;BME280;26708;50.304;19.028;2023-06-14T03:18:32;98248.13;;;13.78;62.21
40982;BME280;26708;50.304;19.028;2023-06-14T03:20:40;98133.03;;;13.04;62.10
40982;BME280;26708;50.304;19.028;2023-06-14T03:22:47;98195.13;;;13.55;62.30
40982;BME280;26708;50.304;19.028;2023-06-14T03:24:52;98229.81;;;13.75;62.64
40982;BME280;26708;50.304;19.028;2023-06-14T03:26:58;98231.47;;;13.77;62.65
40982;BME280;26708;50.304;19.028;2023-06-14T03:29:04;98241.09;;;13.78;62.87
40982;BME280;26708;50.304;19.028;2023-06-14T03:31:09;98037.56;;;12.62;63.01
40982;BME280;26708;50.304;19.028;2023-06-14T03:33:14;98060.22;;;12.68;63.11
40982;BME280;26708;50.304;19.028;2023-06-14T03:35:20;98237.53;;;13.81;63.30
40982;BME280;26708;50.304;19.028;2023-06-14T03:37:28;98045.22;;;12.73;63.23
40982;BME280;26708;50.304;19.028;2023-06-14T03:39:33;98138.19;;;13.11;63.26
40982;BME280;26708;50.304;19.028;2023-06-14T03:41:37;98234.78;;;13.87;63.27
40982;BME280;26708;50.304;19.028;2023-06-14T03:43:43;98245.28;;;13.88;63.30
40982;BME280;26708;50.304;19.028;2023-06-14T03:45:49;98239.97;;;13.90;63.42
40982;BME280;26708;50.304;19.028;2023-06-14T03:47:56;98017.66;;;12.51;63.48
40982;BME280;26708;50.304;19.028;2023-06-14T03:50:04;98246.03;;;13.93;63.57
40982;BME280;26708;50.304;19.028;2023-06-14T03:52:11;98246.09;;;13.92;63.59
40982;BME280;26708;50.304;19.028;2023-06-14T03:54:21;98064.47;;;12.73;63.66
40982;BME280;26708;50.304;19.028;2023-06-14T03:56:28;98109.38;;;13.04;63.70
40982;BME280;26708;50.304;19.028;2023-06-14T03:58:33;98254.09;;;13.86;64.01
40982;BME280;26708;50.304;19.028;2023-06-14T04:00:38;98250.66;;;13.84;64.09
40982;BME280;26708;50.304;19.028;2023-06-14T04:02:43;98248.03;;;13.84;64.24
40982;BME280;26708;50.304;19.028;2023-06-14T04:04:48;98102.50;;;12.98;64.15
40982;BME280;26708;50.304;19.028;2023-06-14T04:06:55;98244.47;;;13.86;64.21
40982;BME280;26708;50.304;19.028;2023-06-14T04:09:03;98255.84;;;13.87;64.30
40982;BME280;26708;50.304;19.028;2023-06-14T04:11:10;98253.19;;;13.88;64.36
40982;BME280;26708;50.304;19.028;2023-06-14T04:13:16;98248.81;;;13.87;64.61
40982;BME280;26708;50.304;19.028;2023-06-14T04:15:22;98052.16;;;12.77;64.56
40982;BME280;26708;50.304;19.028;2023-06-14T04:17:30;98236.59;;;13.85;64.55
40982;BME280;26708;50.304;19.028;2023-06-14T04:19:36;98117.91;;;13.18;64.71
40982;BME280;26708;50.304;19.028;2023-06-14T04:21:42;98247.69;;;13.99;64.59
40982;BME280;26708;50.304;19.028;2023-06-14T04:23:46;98183.47;;;13.68;64.59
40982;BME280;26708;50.304;19.028;2023-06-14T04:25:56;98013.59;;;12.77;64.42
40982;BME280;26708;50.304;19.028;2023-06-14T04:28:07;98170.63;;;13.53;64.31
40982;BME280;26708;50.304;19.028;2023-06-14T04:30:13;98248.28;;;14.13;64.43
40982;BME280;26708;50.304;19.028;2023-06-14T04:32:25;98240.44;;;14.11;64.71
40982;BME280;26708;50.304;19.028;2023-06-14T04:34:32;98119.13;;;13.43;64.71
40982;BME280;26708;50.304;19.028;2023-06-14T04:36:39;98255.16;;;14.20;64.81
40982;BME280;26708;50.304;19.028;2023-06-14T04:38:45;98126.31;;;13.35;64.74
40982;BME280;26708;50.304;19.028;2023-06-14T04:40:51;98229.69;;;14.20;64.68
40982;BME280;26708;50.304;19.028;2023-06-14T04:42:59;98237.38;;;14.31;64.48
40982;BME280;26708;50.304;19.028;2023-06-14T04:45:09;98207.81;;;14.18;64.38
40982;BME280;26708;50.304;19.028;2023-06-14T04:47:17;98055.31;;;13.35;64.21
40982;BME280;26708;50.304;19.028;2023-06-14T04:49:22;98183.38;;;14.12;64.08
40982;BME280;26708;50.304;19.028;2023-06-14T04:51:28;98196.38;;;14.19;64.08
40982;BME280;26708;50.304;19.028;2023-06-14T04:53:35;98250.00;;;14.53;64.03
40982;BME280;26708;50.304;19.028;2023-06-14T04:55:40;98250.88;;;14.54;64.40
40982;BME280;26708;50.304;19.028;2023-06-14T04:57:46;98123.59;;;13.79;64.33
40982;BME280;26708;50.304;19.028;2023-06-14T04:59:56;98212.84;;;14.29;64.40
40982;BME280;26708;50.304;19.028;2023-06-14T05:02:05;98076.41;;;13.33;64.78
40982;BME280;26708;50.304;19.028;2023-06-14T05:04:10;98105.72;;;13.56;65.00
40982;BME280;26708;50.304;19.028;2023-06-14T05:06:15;98258.13;;;14.43;65.10
40982;BME280;26708;50.304;19.028;2023-06-14T05:08:21;98255.44;;;14.46;65.34
40982;BME280;26708;50.304;19.028;2023-06-14T05:10:28;98141.13;;;13.78;65.06
40982;BME280;26708;50.304;19.028;2023-06-14T05:12:34;98268.50;;;14.50;65.50
40982;BME280;26708;50.304;19.028;2023-06-14T05:14:40;98256.97;;;14.56;65.46
40982;BME280;26708;50.304;19.028;2023-06-14T05:16:45;98267.38;;;14.62;65.48
40982;BME280;26708;50.304;19.028;2023-06-14T05:18:53;98262.84;;;14.67;65.32
40982;BME280;26708;50.304;19.028;2023-06-14T05:20:59;98270.78;;;14.65;65.25
40982;BME280;26708;50.304;19.028;2023-06-14T05:23:04;98258.66;;;14.58;65.43
40982;BME280;26708;50.304;19.028;2023-06-14T05:25:10;98110.78;;;13.64;65.37
40982;BME280;26708;50.304;19.028;2023-06-14T05:27:14;98232.94;;;14.31;65.85
40982;BME280;26708;50.304;19.028;2023-06-14T05:29:20;98270.22;;;14.53;65.82
40982;BME280;26708;50.304;19.028;2023-06-14T05:31:26;98116.13;;;13.61;65.83
40982;BME280;26708;50.304;19.028;2023-06-14T05:33:31;98264.34;;;14.40;66.05
40982;BME280;26708;50.304;19.028;2023-06-14T05:35:38;98269.69;;;14.37;66.26
40982;BME280;26708;50.304;19.028;2023-06-14T05:37:43;98165.53;;;13.86;66.16
40982;BME280;26708;50.304;19.028;2023-06-14T05:39:49;98280.81;;;14.50;65.89
40982;BME280;26708;50.304;19.028;2023-06-14T05:41:53;98246.31;;;14.22;65.86
40982;BME280;26708;50.304;19.028;2023-06-14T05:43:59;98287.09;;;14.44;66.21
40982;BME280;26708;50.304;19.028;2023-06-14T05:46:04;98053.19;;;13.14;66.17
40982;BME280;26708;50.304;19.028;2023-06-14T05:48:08;98246.13;;;14.31;66.19
40982;BME280;26708;50.304;19.028;2023-06-14T05:50:14;98276.34;;;14.53;65.94
40982;BME280;26708;50.304;19.028;2023-06-14T05:52:21;98166.41;;;13.85;65.63
40982;BME280;26708;50.304;19.028;2023-06-14T05:54:26;98247.81;;;14.34;65.50
40982;BME280;26708;50.304;19.028;2023-06-14T05:56:34;98196.91;;;13.95;65.55
40982;BME280;26708;50.304;19.028;2023-06-14T05:58:38;98222.13;;;14.07;65.86
40982;BME280;26708;50.304;19.028;2023-06-14T06:00:47;98274.03;;;14.40;65.80
40982;BME280;26708;50.304;19.028;2023-06-14T06:02:52;98288.78;;;14.47;66.00
40982;BME280;26708;50.304;19.028;2023-06-14T06:04:58;98277.47;;;14.42;65.75
40982;BME280;26708;50.304;19.028;2023-06-14T06:07:03;98164.34;;;13.60;65.36
40982;BME280;26708;50.304;19.028;2023-06-14T06:09:11;98292.13;;;14.55;65.66
40982;BME280;26708;50.304;19.028;2023-06-14T06:11:16;98286.75;;;14.58;65.50
40982;BME280;26708;50.304;19.028;2023-06-14T06:13:21;98116.25;;;13.55;65.33
40982;BME280;26708;50.304;19.028;2023-06-14T06:15:27;98289.50;;;14.53;65.58
40982;BME280;26708;50.304;19.028;2023-06-14T06:17:31;98281.69;;;14.50;65.99
40982;BME280;26708;50.304;19.028;2023-06-14T06:19:36;98223.72;;;14.14;66.03
40982;BME280;26708;50.304;19.028;2023-06-14T06:21:42;98138.28;;;13.49;65.97
40982;BME280;26708;50.304;19.028;2023-06-14T06:23:47;98164.38;;;13.58;66.11
40982;BME280;26708;50.304;19.028;2023-06-14T06:25:55;98083.75;;;13.18;66.22
40982;BME280;26708;50.304;19.028;2023-06-14T06:28:00;98199.91;;;13.77;66.38
40982;BME280;26708;50.304;19.028;2023-06-14T06:30:06;98167.75;;;13.65;66.54
40982;BME280;26708;50.304;19.028;2023-06-14T06:32:11;98254.44;;;14.12;66.35
40982;BME280;26708;50.304;19.028;2023-06-14T06:34:17;98288.09;;;14.39;66.44
40982;BME280;26708;50.304;19.028;2023-06-14T06:36:22;98245.00;;;14.02;66.55
40982;BME280;26708;50.304;19.028;2023-06-14T06:38:26;98307.13;;;14.50;66.58
40982;BME280;26708;50.304;19.028;2023-06-14T06:40:32;98304.41;;;14.54;66.72
40982;BME280;26708;50.304;19.028;2023-06-14T06:42:39;98113.75;;;13.47;66.28
40982;BME280;26708;50.304;19.028;2023-06-14T06:44:49;98294.38;;;14.32;66.79
40982;BME280;26708;50.304;19.028;2023-06-14T06:46:55;98185.81;;;13.81;66.51
40982;BME280;26708;50.304;19.028;2023-06-14T06:49:00;98210.88;;;13.99;66.69
40982;BME280;26708;50.304;19.028;2023-06-14T06:51:04;98309.31;;;14.69;66.41
40982;BME280;26708;50.304;19.028;2023-06-14T06:53:10;98161.31;;;13.79;66.47
40982;BME280;26708;50.304;19.028;2023-06-14T06:55:15;98057.22;;;13.30;66.45
40982;BME280;26708;50.304;19.028;2023-06-14T06:57:19;98316.06;;;14.81;65.83
40982;BME280;26708;50.304;19.028;2023-06-14T06:59:28;98266.91;;;14.45;65.64
40982;BME280;26708;50.304;19.028;2023-06-14T07:01:32;98247.13;;;14.26;65.88
40982;BME280;26708;50.304;19.028;2023-06-14T07:03:37;98174.56;;;13.75;66.32
40982;BME280;26708;50.304;19.028;2023-06-14T07:05:42;98316.50;;;14.64;66.34
40982;BME280;26708;50.304;19.028;2023-06-14T07:07:47;98218.53;;;14.09;66.54
40982;BME280;26708;50.304;19.028;2023-06-14T07:09:51;98322.59;;;14.65;66.55
40982;BME280;26708;50.304;19.028;2023-06-14T07:11:59;98319.94;;;14.66;66.41
40982;BME280;26708;50.304;19.028;2023-06-14T07:14:04;98289.78;;;14.41;66.75
40982;BME280;26708;50.304;19.028;2023-06-14T07:16:12;98252.34;;;14.29;66.48
40982;BME280;26708;50.304;19.028;2023-06-14T07:18:17;98302.00;;;14.44;66.37
40982;BME280;26708;50.304;19.028;2023-06-14T07:20:22;98328.44;;;14.79;66.74
40982;BME280;26708;50.304;19.028;2023-06-14T07:22:26;98330.06;;;14.84;66.80
40982;BME280;26708;50.304;19.028;2023-06-14T07:24:32;98312.50;;;14.85;66.16
40982;BME280;26708;50.304;19.028;2023-06-14T07:26:37;98344.81;;;14.91;65.83
40982;BME280;26708;50.304;19.028;2023-06-14T07:28:42;98340.47;;;14.90;65.82
40982;BME280;26708;50.304;19.028;2023-06-14T07:30:48;98277.34;;;14.48;66.05
40982;BME280;26708;50.304;19.028;2023-06-14T07:32:57;98347.25;;;14.62;66.19
40982;BME280;26708;50.304;19.028;2023-06-14T07:35:02;98325.88;;;14.76;66.47
40982;BME280;26708;50.304;19.028;2023-06-14T07:37:08;98331.19;;;14.73;66.80
40982;BME280;26708;50.304;19.028;2023-06-14T07:39:13;98336.34;;;14.79;66.88
40982;BME280;26708;50.304;19.028;2023-06-14T07:41:18;98340.63;;;14.83;66.81
40982;BME280;26708;50.304;19.028;2023-06-14T07:43:23;98111.38;;;13.37;66.72
40982;BME280;26708;50.304;19.028;2023-06-14T07:45:28;98313.66;;;14.72;66.64
40982;BME280;26708;50.304;19.028;2023-06-14T07:47:32;98337.94;;;14.86;66.22
40982;BME280;26708;50.304;19.028;2023-06-14T07:49:40;98234.84;;;14.26;65.83
40982;BME280;26708;50.304;19.028;2023-06-14T07:51:45;98347.38;;;14.94;65.96
40982;BME280;26708;50.304;19.028;2023-06-14T07:53:51;98359.53;;;15.03;65.49
40982;BME280;26708;50.304;19.028;2023-06-14T07:55:57;98363.84;;;15.05;65.31
40982;BME280;26708;50.304;19.028;2023-06-14T07:58:02;98262.00;;;14.27;65.09
40982;BME280;26708;50.304;19.028;2023-06-14T08:00:08;98369.44;;;14.92;65.38
40982;BME280;26708;50.304;19.028;2023-06-14T08:02:17;98364.19;;;14.89;65.65
40982;BME280;26708;50.304;19.028;2023-06-14T08:04:22;98365.03;;;14.91;65.96
40982;BME280;26708;50.304;19.028;2023-06-14T08:06:29;98209.81;;;14.07;65.67
40982;BME280;26708;50.304;19.028;2023-06-14T08:08:35;98107.47;;;13.56;65.32
40982;BME280;26708;50.304;19.028;2023-06-14T08:10:40;98366.41;;;15.08;65.45
40982;BME280;26708;50.304;19.028;2023-06-14T08:12:44;98237.28;;;14.34;64.90
40982;BME280;26708;50.304;19.028;2023-06-14T08:14:50;98364.66;;;15.09;64.92
40982;BME280;26708;50.304;19.028;2023-06-14T08:17:02;98338.66;;;14.91;64.70
40982;BME280;26708;50.304;19.028;2023-06-14T08:19:07;98344.84;;;14.90;65.25
40982;BME280;26708;50.304;19.028;2023-06-14T08:21:13;98338.72;;;14.89;65.10
40982;BME280;26708;50.304;19.028;2023-06-14T08:23:21;98151.59;;;13.81;65.21
40982;BME280;26708;50.304;19.028;2023-06-14T08:25:26;98355.06;;;15.05;64.98
40982;BME280;26708;50.304;19.028;2023-06-14T08:27:31;98355.94;;;15.07;65.05
40982;BME280;26708;50.304;19.028;2023-06-14T08:29:36;98369.09;;;15.07;64.95
40982;BME280;26708;50.304;19.028;2023-06-14T08:31:41;98193.28;;;13.99;65.20
40982;BME280;26708;50.304;19.028;2023-06-14T08:33:47;98226.06;;;14.26;65.58
40982;BME280;26708;50.304;19.028;2023-06-14T08:35:51;98195.00;;;14.02;66.02
40982;BME280;26708;50.304;19.028;2023-06-14T08:37:56;98264.38;;;14.39;66.32
40982;BME280;26708;50.304;19.028;2023-06-14T08:40:05;98253.66;;;14.46;66.92
40982;BME280;26708;50.304;19.028;2023-06-14T08:42:20;98368.78;;;15.19;67.24
40982;BME280;26708;50.304;19.028;2023-06-14T08:44:28;98374.09;;;15.17;67.49
40982;BME280;26708;50.304;19.028;2023-06-14T08:46:37;98130.78;;;13.72;67.44
40982;BME280;26708;50.304;19.028;2023-06-14T08:48:42;98257.03;;;14.53;68.15
40982;BME280;26708;50.304;19.028;2023-06-14T08:50:48;98334.03;;;15.03;68.56
40982;BME280;26708;50.304;19.028;2023-06-14T08:52:55;98117.53;;;13.75;68.71
40982;BME280;26708;50.304;19.028;2023-06-14T08:55:07;98371.22;;;15.28;68.83
40982;BME280;26708;50.304;19.028;2023-06-14T08:57:14;98379.78;;;15.36;68.33
40982;BME280;26708;50.304;19.028;2023-06-14T08:59:24;98199.13;;;14.15;68.40
40982;BME280;26708;50.304;19.028;2023-06-14T09:01:34;98398.13;;;15.42;68.35
40982;BME280;26708;50.304;19.028;2023-06-14T09:03:40;98309.59;;;14.95;68.08
40982;BME280;26708;50.304;19.028;2023-06-14T09:05:47;98361.56;;;15.27;67.91
40982;BME280;26708;50.304;19.028;2023-06-14T09:07:54;98204.44;;;14.12;67.63
40982;BME280;26708;50.304;19.028;2023-06-14T09:10:12;98388.47;;;15.41;68.41
40982;BME280;26708;50.304;19.028;2023-06-14T09:12:21;98395.34;;;15.48;68.89
40982;BME280;26708;50.304;19.028;2023-06-14T09:14:25;98393.41;;;15.54;69.08
40982;BME280;26708;50.304;19.028;2023-06-14T09:16:32;98333.59;;;15.20;68.47
40982;BME280;26708;50.304;19.028;2023-06-14T09:18:39;98330.81;;;15.27;67.79
40982;BME280;26708;50.304;19.028;2023-06-14T09:20:48;98409.00;;;15.63;66.99
40982;BME280;26708;50.304;19.028;2023-06-14T09:22:53;98356.06;;;15.36;66.62
40982;BME280;26708;50.304;19.028;2023-06-14T09:24:59;98255.53;;;14.79;66.77
40982;BME280;26708;50.304;19.028;2023-06-14T09:27:07;98302.78;;;15.22;66.81
40982;BME280;26708;50.304;19.028;2023-06-14T09:29:12;98393.97;;;15.67;66.84
40982;BME280;26708;50.304;19.028;2023-06-14T09:31:19;98188.94;;;14.38;67.19
40982;BME280;26708;50.304;19.028;2023-06-14T09:33:25;98118.69;;;14.02;67.25
40982;BME280;26708;50.304;19.028;2023-06-14T09:35:32;98214.41;;;14.36;66.68
40982;BME280;26708;50.304;19.028;2023-06-14T09:37:41;98257.41;;;14.74;67.12
40982;BME280;26708;50.304;19.028;2023-06-14T09:39:49;98293.97;;;14.86;67.03
40982;BME280;26708;50.304;19.028;2023-06-14T09:41:55;98320.84;;;15.03;67.52
40982;BME280;26708;50.304;19.028;2023-06-14T09:44:05;98326.06;;;15.05;67.09
40982;BME280;26708;50.304;19.028;2023-06-14T09:46:11;98352.22;;;15.14;67.42
40982;BME280;26708;50.304;19.028;2023-06-14T09:48:20;98141.06;;;13.83;67.46
40982;BME280;26708;50.304;19.028;2023-06-14T09:50:27;98328.31;;;14.83;67.58
40982;BME280;26708;50.304;19.028;2023-06-14T09:52:33;98329.81;;;14.95;67.77
40982;BME280;26708;50.304;19.028;2023-06-14T09:54:43;98182.88;;;13.93;67.98
40982;BME280;26708;50.304;19.028;2023-06-14T09:56:51;98148.88;;;13.86;67.89
40982;BME280;26708;50.304;19.028;2023-06-14T09:58:59;98351.72;;;14.97;67.54
40982;BME280;26708;50.304;19.028;2023-06-14T10:01:12;98147.59;;;13.64;67.55
40982;BME280;26708;50.304;19.028;2023-06-14T10:03:24;98347.31;;;14.97;67.71
40982;BME280;26708;50.304;19.028;2023-06-14T10:05:35;98148.06;;;13.82;67.53
40982;BME280;26708;50.304;19.028;2023-06-14T10:07:48;98172.22;;;14.01;67.06
40982;BME280;26708;50.304;19.028;2023-06-14T10:09:58;98179.03;;;14.09;67.36
40982;BME280;26708;50.304;19.028;2023-06-14T10:12:07;98155.97;;;13.82;67.21
40982;BME280;26708;50.304;19.028;2023-06-14T10:14:13;98359.19;;;15.16;67.79
40982;BME280;26708;50.304;19.028;2023-06-14T10:16:28;98134.13;;;13.79;67.20
40982;BME280;26708;50.304;19.028;2023-06-14T10:18:48;98185.09;;;14.13;67.21
40982;BME280;26708;50.304;19.028;2023-06-14T10:21:05;98174.94;;;13.96;67.46
40982;BME280;26708;50.304;19.028;2023-06-14T10:23:21;98282.63;;;14.83;68.09
40982;BME280;26708;50.304;19.028;2023-06-14T10:25:29;98238.78;;;14.44;68.45
40982;BME280;26708;50.304;19.028;2023-06-14T10:27:35;98242.63;;;14.67;67.60
40982;BME280;26708;50.304;19.028;2023-06-14T10:30:02;98275.66;;;14.82;66.70
40982;BME280;26708;50.304;19.028;2023-06-14T10:32:10;98197.88;;;14.66;66.69
40982;BME280;26708;50.304;19.028;2023-06-14T10:34:25;98278.22;;;15.20;66.46
40982;BME280;26708;50.304;19.028;2023-06-14T10:36:33;98293.91;;;15.26;65.97
40982;BME280;26708;50.304;19.028;2023-06-14T10:38:38;98369.75;;;15.85;66.30
40982;BME280;26708;50.304;19.028;2023-06-14T10:40:52;98384.69;;;15.84;65.31
40982;BME280;26708;50.304;19.028;2023-06-14T10:43:00;98281.03;;;15.47;65.04
40982;BME280;26708;50.304;19.028;2023-06-14T10:45:06;98396.25;;;16.13;65.24
40982;BME280;26708;50.304;19.028;2023-06-14T10:47:37;98337.16;;;15.86;65.89
40982;BME280;26708;50.304;19.028;2023-06-14T10:49:45;98330.00;;;15.91;64.79
40982;BME280;26708;50.304;19.028;2023-06-14T10:51:57;98239.75;;;15.45;65.24
40982;BME280;26708;50.304;19.028;2023-06-14T10:54:02;98382.28;;;16.40;64.99
40982;BME280;26708;50.304;19.028;2023-06-14T10:56:08;98176.44;;;15.14;65.37
40982;BME280;26708;50.304;19.028;2023-06-14T10:58:13;98280.69;;;15.93;64.60
40982;BME280;26708;50.304;19.028;2023-06-14T11:00:20;98193.13;;;15.47;65.21
40982;BME280;26708;50.304;19.028;2023-06-14T11:05:28;98022.28;;;14.65;64.02
40982;BME280;26708;50.304;19.028;2023-06-14T11:08:19;98322.63;;;16.32;64.16